KLOZ/LOZ METAR and TAF weather

Enter ICAO airport designator
Station Type Date Time Source
KLOZ METAR 2020/03/31 05:53 UTC NOAA

KLOZ 310553Z AUTO 00000KT 10SM CLR 11/04 A3001 RMK AO2 SLP157 T01060039 10144 20100 58014


Station Type Date Time Source
KLOZ Decoded METAR 2020/03/31 05:53 UTC NOAA

LONDON-CORBIN AIRPORT, KY, United States (KLOZ) 37-05N 084-04W 362M
Mar 31, 2020 - 01:53 AM EDT / 2020.03.31 0553 UTC
Wind: Calm:0
Visibility: 10 mile(s):0
Sky conditions: clear
Temperature: 51.1 F (10.6 C)
Dew Point: 39.0 F (3.9 C)
Relative Humidity: 63%
Pressure (altimeter): 30.01 in. Hg (1016 hPa)
Pressure tendency: 0.04 inches (1.4 hPa) lower than three hours ago
ob: KLOZ 310553Z AUTO 00000KT 10SM CLR 11/04 A3001 RMK AO2 SLP157 T01060039 10144 20100 58014
cycle: 6

Station Type Date Time Source
KLOZ TAF 2020/03/31 06:30 UTC NOAA

TAF KLOZ 310529Z 3106/0106 00000KT P6SM BKN200
FM311400 VRB03KT P6SM VCSH OVC045
FM311500 VRB04KT 4SM -RA BR OVC020
FM311700 VRB04KT 2SM -RA BR OVC009
FM312300 VRB04KT P6SM VCSH OVC015

Example: see airport list